Time;durP1;ratioP1;P1;durP2;ratioP2;P2;SDS_P1;SDS_P2;PMS_P1;PMS_P2;Temp;Humidity;BMP_temperature;BMP_pressure;BME280_temperature;BME280_humidity;BME280_pressure;Samples;Min_cycle;Max_cycle;Signal;HPM_P1;HPM_P2
2021/11/22 00:00:43;;;;;;;12.77;1.88;;;18.80;99.90;;;;;;5048671;28;20036;-70
2021/11/22 00:03:10;;;;;;;13.70;2.03;;;18.90;99.90;;;;;;5047883;28;20024;-71
2021/11/22 00:05:38;;;;;;;16.95;2.22;;;18.50;99.90;;;;;;5049391;28;20033;-70
2021/11/22 00:08:06;;;;;;;28.10;3.10;;;18.40;99.90;;;;;;5047151;28;20108;-71
2021/11/22 00:10:35;;;;;;;18.17;2.80;;;18.50;99.90;;;;;;5065089;28;20033;-71
2021/11/22 00:13:03;;;;;;;18.98;2.60;;;18.60;99.90;;;;;;5033917;28;20033;-70
2021/11/22 00:15:33;;;;;;;10.85;2.17;;;18.80;99.90;;;;;;5033848;28;20022;-71
2021/11/22 00:18:00;;;;;;;14.07;2.00;;;18.70;99.90;;;;;;5033727;28;20529;-69
2021/11/22 00:20:28;;;;;;;19.23;2.53;;;18.50;99.90;;;;;;5034267;28;20032;-71
2021/11/22 00:22:55;;;;;;;15.52;2.85;;;18.50;99.90;;;;;;5033546;28;20507;-70
2021/11/22 00:25:22;;;;;;;17.17;2.63;;;18.50;99.90;;;;;;5034156;28;20025;-71
2021/11/22 00:27:51;;;;;;;15.32;2.42;;;18.50;99.90;;;;;;5033667;28;20021;-70
2021/11/22 00:30:19;;;;;;;15.40;2.30;;;18.30;99.90;;;;;;5034590;28;20055;-70
2021/11/22 00:32:46;;;;;;;18.30;2.97;;;18.40;99.90;;;;;;5034318;28;20040;-70
2021/11/22 00:35:15;;;;;;;18.33;2.20;;;18.40;99.90;;;;;;5034852;28;20503;-70
2021/11/22 00:37:45;;;;;;;16.45;2.92;;;18.40;99.90;;;;;;5033729;28;20029;-71
2021/11/22 00:40:14;;;;;;;17.00;2.10;;;18.30;99.90;;;;;;5032272;28;20116;-70
2021/11/22 00:42:45;;;;;;;14.27;2.25;;;18.50;99.90;;;;;;5029747;28;20079;-71
2021/11/22 00:45:13;;;;;;;14.82;2.05;;;18.50;99.90;;;;;;5047794;28;20052;-70
2021/11/22 00:47:40;;;;;;;16.08;2.85;;;18.60;99.90;;;;;;5041634;28;20037;-69
2021/11/22 00:50:08;;;;;;;13.35;2.50;;;18.80;99.90;;;;;;5041892;28;20033;-71
2021/11/22 00:52:36;;;;;;;15.05;2.40;;;18.80;99.90;;;;;;5028987;28;20033;-71
2021/11/22 00:55:04;;;;;;;18.98;2.95;;;18.60;99.90;;;;;;5028688;28;20052;-71
2021/11/22 00:57:32;;;;;;;14.82;2.15;;;18.50;99.90;;;;;;5027944;28;20036;-71
2021/11/22 00:59:59;;;;;;;16.70;2.97;;;18.60;99.90;;;;;;5034723;28;20026;-72
2021/11/22 01:02:27;;;;;;;11.38;1.88;;;18.40;99.90;;;;;;5038141;28;20033;-69
2021/11/22 01:04:54;;;;;;;17.05;1.70;;;18.40;99.90;;;;;;5032089;28;20048;-68
2021/11/22 01:07:22;;;;;;;15.23;1.83;;;18.50;99.90;;;;;;5043559;28;20021;-68
2021/11/22 01:09:49;;;;;;;10.35;1.55;;;18.40;99.90;;;;;;5032396;28;20091;-69
2021/11/22 01:12:16;;;;;;;14.45;2.20;;;18.40;99.90;;;;;;5032346;28;20049;-69
2021/11/22 01:14:44;;;;;;;20.23;2.85;;;18.40;99.90;;;;;;5033178;28;20477;-69
2021/11/22 01:17:11;;;;;;;24.35;2.63;;;18.50;99.90;;;;;;5030871;28;20030;-68
2021/11/22 01:19:39;;;;;;;15.32;2.92;;;18.70;99.90;;;;;;5034226;28;20049;-68
2021/11/22 01:22:06;;;;;;;14.02;2.50;;;18.60;99.90;;;;;;5051049;28;19997;-67
2021/11/22 01:24:33;;;;;;;14.07;2.22;;;18.60;99.90;;;;;;5049426;28;20029;-68
2021/11/22 01:27:00;;;;;;;18.27;3.92;;;18.50;99.90;;;;;;5044176;28;20041;-67
2021/11/22 01:29:28;;;;;;;22.52;3.30;;;18.30;99.90;;;;;;5042689;28;20465;-69
2021/11/22 01:31:55;;;;;;;15.13;3.33;;;18.40;99.90;;;;;;5043037;28;20029;-70
2021/11/22 01:34:22;;;;;;;17.63;2.20;;;18.50;99.90;;;;;;5044673;28;20478;-68
2021/11/22 01:36:49;;;;;;;12.57;2.22;;;18.70;99.90;;;;;;5050315;28;20025;-69
2021/11/22 01:39:17;;;;;;;14.80;2.33;;;19.00;99.90;;;;;;5033208;28;20032;-69
2021/11/22 01:41:44;;;;;;;10.98;2.00;;;19.50;99.90;;;;;;5032451;28;20485;-68
2021/11/22 01:44:11;;;;;;;7.20;1.00;;;19.60;99.90;;;;;;5036226;28;20087;-69
2021/11/22 01:46:39;;;;;;;6.38;1.27;;;19.70;99.90;;;;;;5032385;28;20749;-69
2021/11/22 01:49:07;;;;;;;11.43;1.70;;;19.90;99.90;;;;;;5034643;28;20037;-68
2021/11/22 01:51:34;;;;;;;8.98;2.50;;;20.20;99.90;;;;;;5031753;28;20777;-69
2021/11/22 01:54:05;;;;;;;10.75;2.03;;;20.60;99.90;;;;;;5032089;28;20063;-69
2021/11/22 01:56:32;;;;;;;14.73;1.88;;;20.50;99.90;;;;;;5033747;28;20469;-68
2021/11/22 01:58:59;;;;;;;15.57;2.15;;;20.30;99.90;;;;;;5033490;28;20056;-69
2021/11/22 02:01:26;;;;;;;14.50;2.30;;;19.90;99.90;;;;;;5034246;28;20025;-69
2021/11/22 02:03:54;;;;;;;17.33;2.15;;;19.50;99.90;;;;;;5032015;28;20436;-69
2021/11/22 02:06:21;;;;;;;13.45;2.08;;;19.30;99.90;;;;;;5030982;28;20481;-69
2021/11/22 02:08:48;;;;;;;13.45;1.90;;;19.20;99.90;;;;;;5034021;28;20037;-68
2021/11/22 02:11:17;;;;;;;9.73;1.73;;;18.90;99.90;;;;;;5033513;28;20466;-68
2021/11/22 02:13:44;;;;;;;13.70;1.90;;;18.20;99.90;;;;;;5035473;28;20021;-68
2021/11/22 02:16:11;;;;;;;12.75;1.92;;;18.10;99.90;;;;;;5051050;28;20026;-68
2021/11/22 02:18:43;;;;;;;11.32;1.13;;;17.60;99.90;;;;;;5035716;28;20025;-68
2021/11/22 02:21:11;;;;;;;13.20;1.55;;;17.60;99.90;;;;;;5035765;28;20025;-68
2021/11/22 02:23:39;;;;;;;13.48;2.03;;;17.70;99.90;;;;;;5034384;28;20091;-68
2021/11/22 02:26:06;;;;;;;12.90;1.75;;;17.60;99.90;;;;;;5047800;28;20028;-69
2021/11/22 02:28:34;;;;;;;10.43;1.40;;;17.70;99.90;;;;;;5030706;28;20044;-68
2021/11/22 02:31:01;;;;;;;11.45;2.30;;;17.50;99.90;;;;;;5033409;28;20119;-68
2021/11/22 02:33:29;;;;;;;11.63;0.93;;;17.40;99.90;;;;;;5032231;28;20505;-68
2021/11/22 02:36:01;;;;;;;12.55;2.13;;;17.50;99.90;;;;;;5033071;28;20033;-68
2021/11/22 02:38:35;;;;;;;15.60;2.08;;;17.90;99.90;;;;;;5033560;28;20079;-68
2021/11/22 02:41:03;;;;;;;6.25;0.82;;;18.20;99.90;;;;;;5032564;28;20030;-68
2021/11/22 02:43:33;;;;;;;10.57;1.10;;;18.50;99.90;;;;;;5040031;28;20121;-68
2021/11/22 02:46:01;;;;;;;10.20;1.48;;;18.90;99.90;;;;;;5016040;28;20042;-68
2021/11/22 02:48:29;;;;;;;5.75;0.77;;;19.20;99.90;;;;;;5032114;28;20108;-68
2021/11/22 02:50:57;;;;;;;6.90;1.17;;;19.10;99.90;;;;;;5033103;28;20073;-69
2021/11/22 02:53:25;;;;;;;7.30;1.00;;;19.30;99.90;;;;;;5032356;28;20026;-68
2021/11/22 02:55:57;;;;;;;10.45;1.40;;;19.20;99.90;;;;;;5032738;28;20033;-68
2021/11/22 02:58:24;;;;;;;17.48;1.58;;;19.20;99.90;;;;;;5048856;28;20040;-69
2021/11/22 03:00:53;;;;;;;12.32;1.88;;;19.20;99.90;;;;;;5023491;28;20040;-68
2021/11/22 03:03:25;;;;;;;12.60;1.67;;;19.30;99.90;;;;;;5028825;28;20025;-69
2021/11/22 03:06:08;;;;;;;13.38;1.92;;;19.20;99.90;;;;;;5031993;28;20022;-68
2021/11/22 03:08:37;;;;;;;14.18;1.90;;;19.30;99.90;;;;;;5050959;28;20021;-68
2021/11/22 03:11:05;;;;;;;13.52;2.05;;;19.20;99.90;;;;;;5052712;28;20465;-69
2021/11/22 03:13:32;;;;;;;16.30;2.58;;;19.20;99.90;;;;;;5032265;28;20112;-69
2021/11/22 03:16:00;;;;;;;17.90;3.03;;;19.30;99.90;;;;;;5035433;28;20084;-68
2021/11/22 03:18:28;;;;;;;13.45;1.67;;;19.70;99.90;;;;;;5037061;28;20036;-68
2021/11/22 03:20:55;;;;;;;11.75;1.75;;;20.10;99.90;;;;;;5029625;28;20072;-68
2021/11/22 03:23:22;;;;;;;10.55;1.80;;;20.10;99.90;;;;;;5054310;28;20033;-68
2021/11/22 03:25:50;;;;;;;9.30;1.60;;;20.10;99.90;;;;;;5050471;28;20040;-68
2021/11/22 03:28:19;;;;;;;12.25;1.92;;;20.20;99.90;;;;;;5038905;28;20033;-68
2021/11/22 03:30:47;;;;;;;13.52;1.90;;;20.70;99.90;;;;;;5034082;28;20129;-70
2021/11/22 03:33:15;;;;;;;13.93;2.17;;;20.70;99.90;;;;;;5042444;28;20037;-68
2021/11/22 03:35:43;;;;;;;19.42;2.53;;;20.60;99.90;;;;;;5039001;28;20585;-68
2021/11/22 03:38:12;;;;;;;14.32;2.40;;;20.80;99.90;;;;;;5039223;28;20474;-68
2021/11/22 03:40:42;;;;;;;13.95;2.22;;;20.80;99.90;;;;;;5043708;28;20052;-68
2021/11/22 03:45:43;;;;;;;17.55;2.58;;;20.40;99.90;;;;;;5044126;28;20081;-68
2021/11/22 03:48:12;;;;;;;15.52;2.63;;;20.00;99.90;;;;;;5037894;28;20018;-69
2021/11/22 03:50:39;;;;;;;16.92;2.38;;;20.20;99.90;;;;;;5038427;28;20050;-70
2021/11/22 03:53:07;;;;;;;13.73;1.63;;;20.30;99.90;;;;;;5035756;28;20102;-68
2021/11/22 03:55:34;;;;;;;14.38;2.40;;;20.20;99.90;;;;;;5052942;28;20037;-68
2021/11/22 03:58:01;;;;;;;13.85;2.05;;;20.10;99.90;;;;;;5039777;28;20049;-68
2021/11/22 04:00:28;;;;;;;10.88;2.45;;;20.10;99.90;;;;;;5036916;28;20026;-68
2021/11/22 04:02:56;;;;;;;13.00;1.85;;;20.10;99.90;;;;;;5044423;28;20033;-69
2021/11/22 04:05:23;;;;;;;16.85;2.40;;;20.30;99.90;;;;;;5036492;28;20033;-68
2021/11/22 04:07:51;;;;;;;8.30;1.35;;;20.30;99.90;;;;;;5049180;28;20477;-68
2021/11/22 04:10:18;;;;;;;12.20;1.92;;;20.20;99.90;;;;;;5041803;28;20026;-67
2021/11/22 04:12:45;;;;;;;22.08;2.83;;;20.10;99.90;;;;;;5055426;28;20033;-67
2021/11/22 04:15:13;;;;;;;13.20;2.10;;;20.10;99.90;;;;;;5045249;28;20017;-72
2021/11/22 04:17:40;;;;;;;15.35;2.20;;;20.10;99.90;;;;;;5051181;28;20029;-68
2021/11/22 04:20:09;;;;;;;11.35;1.35;;;20.10;99.90;;;;;;5057996;28;20035;-67
2021/11/22 04:22:36;;;;;;;9.48;2.45;;;19.90;99.90;;;;;;5048752;28;20090;-67
2021/11/22 04:25:05;;;;;;;12.10;1.80;;;19.90;99.90;;;;;;5048048;28;20026;-68
2021/11/22 04:27:34;;;;;;;14.85;2.40;;;20.00;99.90;;;;;;5049049;28;20030;-67
2021/11/22 04:30:03;;;;;;;8.82;1.50;;;20.10;99.90;;;;;;5070321;28;20016;-67
2021/11/22 04:32:30;;;;;;;13.57;2.47;;;20.10;99.90;;;;;;5056795;28;20116;-68
2021/11/22 04:34:57;;;;;;;16.90;1.80;;;20.00;99.90;;;;;;5043877;28;20079;-68
2021/11/22 04:37:28;;;;;;;17.25;2.85;;;20.00;99.90;;;;;;5043315;28;20033;-67
2021/11/22 04:39:55;;;;;;;11.13;1.92;;;20.10;99.90;;;;;;5058962;28;20093;-67
2021/11/22 04:42:23;;;;;;;16.45;2.85;;;20.00;99.90;;;;;;5063045;28;20074;-66
2021/11/22 04:44:51;;;;;;;13.82;2.13;;;19.90;99.90;;;;;;5059259;28;20025;-67
2021/11/22 04:47:20;;;;;;;15.45;1.75;;;19.80;99.90;;;;;;5057262;28;20017;-67
2021/11/22 04:49:49;;;;;;;15.30;2.03;;;19.60;99.90;;;;;;5063701;28;20020;-67
2021/11/22 04:52:17;;;;;;;20.42;2.50;;;19.50;99.90;;;;;;5065282;28;20072;-66
2021/11/22 04:54:45;;;;;;;16.50;2.05;;;19.40;99.90;;;;;;5066301;28;20059;-66
2021/11/22 04:57:14;;;;;;;16.08;2.00;;;19.40;99.90;;;;;;5062162;28;20025;-66
2021/11/22 04:59:42;;;;;;;16.15;3.28;;;19.30;99.90;;;;;;5060914;28;20025;-66
2021/11/22 05:02:11;;;;;;;17.15;2.28;;;19.20;99.90;;;;;;5040622;28;20037;-68
2021/11/22 05:04:39;;;;;;;18.05;2.30;;;19.00;99.90;;;;;;5031930;28;20030;-68
2021/11/22 05:07:08;;;;;;;17.50;2.22;;;18.90;99.90;;;;;;5046543;28;20025;-70
2021/11/22 05:09:36;;;;;;;18.58;2.75;;;18.90;99.90;;;;;;5054123;28;20020;-69
2021/11/22 05:12:04;;;;;;;18.60;2.58;;;19.00;99.90;;;;;;5038395;28;20264;-69
2021/11/22 05:14:31;;;;;;;17.38;3.38;;;19.10;99.90;;;;;;5047898;28;20031;-69
2021/11/22 05:16:59;;;;;;;17.52;2.17;;;19.10;99.90;;;;;;5031666;28;20037;-69
2021/11/22 05:19:30;;;;;;;17.35;2.75;;;19.00;99.90;;;;;;5035039;28;20040;-69
2021/11/22 05:22:02;;;;;;;16.02;3.00;;;19.00;99.90;;;;;;5037801;28;20057;-69
2021/11/22 05:24:30;;;;;;;27.95;3.38;;;19.00;99.90;;;;;;5051576;28;20105;-69
2021/11/22 05:27:01;;;;;;;20.67;3.22;;;18.90;99.90;;;;;;5038578;28;20111;-69
2021/11/22 05:29:29;;;;;;;12.48;2.67;;;18.80;99.90;;;;;;5039535;28;20024;-68
2021/11/22 05:31:56;;;;;;;12.52;2.75;;;18.50;99.90;;;;;;5035411;28;20014;-69
2021/11/22 05:34:23;;;;;;;18.52;2.55;;;18.50;99.90;;;;;;5036113;28;20037;-68
2021/11/22 05:36:51;;;;;;;12.88;1.70;;;18.40;99.90;;;;;;5036947;28;20025;-69
2021/11/22 05:39:18;;;;;;;15.30;1.98;;;18.30;99.90;;;;;;5025732;28;20448;-69
2021/11/22 05:41:45;;;;;;;18.80;2.28;;;18.30;99.90;;;;;;5037493;28;20013;-69
2021/11/22 05:44:12;;;;;;;17.48;2.03;;;18.20;99.90;;;;;;5047065;28;20021;-69
2021/11/22 05:46:40;;;;;;;18.52;3.28;;;18.30;99.90;;;;;;5037117;28;20126;-69
2021/11/22 05:49:07;;;;;;;17.92;2.85;;;18.30;99.90;;;;;;5024803;28;20613;-69
2021/11/22 05:51:34;;;;;;;19.25;2.45;;;18.40;99.90;;;;;;5035649;28;20029;-68
2021/11/22 05:54:02;;;;;;;21.13;2.88;;;18.40;99.90;;;;;;5046919;28;20055;-68
2021/11/22 05:56:30;;;;;;;18.73;2.55;;;18.40;99.90;;;;;;5046218;28;20041;-69
2021/11/22 05:58:57;;;;;;;19.50;2.10;;;18.30;99.90;;;;;;5048868;28;20037;-68
2021/11/22 06:01:24;;;;;;;15.95;3.17;;;18.30;99.90;;;;;;5049334;28;20037;-68
2021/11/22 06:03:52;;;;;;;14.07;2.38;;;18.30;99.90;;;;;;5043288;28;20033;-69
2021/11/22 06:06:19;;;;;;;19.20;2.70;;;18.40;99.90;;;;;;5032451;28;20068;-69
2021/11/22 06:08:47;;;;;;;18.45;2.53;;;18.40;99.90;;;;;;5036762;28;20037;-69
2021/11/22 06:11:14;;;;;;;18.67;2.28;;;18.30;99.90;;;;;;5041648;28;20723;-69
2021/11/22 06:13:41;;;;;;;25.65;3.55;;;18.20;99.90;;;;;;5060479;28;20025;-70
2021/11/22 06:16:09;;;;;;;19.80;2.45;;;18.00;99.90;;;;;;5051219;28;20485;-69
2021/11/22 06:18:36;;;;;;;16.98;2.45;;;18.00;99.90;;;;;;5041710;28;20028;-69
2021/11/22 06:21:03;;;;;;;16.55;2.65;;;18.00;99.90;;;;;;5033529;28;20028;-69
2021/11/22 06:23:30;;;;;;;22.15;3.00;;;17.90;99.90;;;;;;5035451;28;20053;-69
2021/11/22 06:25:58;;;;;;;21.23;2.92;;;18.00;99.90;;;;;;5033208;28;20071;-69
2021/11/22 06:28:25;;;;;;;23.15;2.63;;;17.90;99.90;;;;;;5031271;28;20124;-69
2021/11/22 06:30:52;;;;;;;21.45;2.80;;;17.90;99.90;;;;;;5035660;28;20029;-69
2021/11/22 06:33:20;;;;;;;25.35;3.63;;;17.90;99.90;;;;;;5032572;28;20089;-69
2021/11/22 06:35:47;;;;;;;20.73;3.03;;;18.00;99.90;;;;;;5034953;28;20053;-69
2021/11/22 06:38:14;;;;;;;18.52;3.75;;;18.00;99.90;;;;;;5029534;28;20025;-69
2021/11/22 06:40:42;;;;;;;18.48;3.33;;;18.10;99.90;;;;;;5046179;28;20125;-68
2021/11/22 06:43:11;;;;;;;21.75;2.20;;;18.00;99.90;;;;;;5023353;28;20036;-68
2021/11/22 06:45:38;;;;;;;21.92;2.53;;;18.10;99.90;;;;;;5031525;28;20056;-69
2021/11/22 06:48:06;;;;;;;19.45;1.98;;;18.10;99.90;;;;;;5046657;28;20091;-68
2021/11/22 06:50:33;;;;;;;22.30;3.83;;;18.10;99.90;;;;;;5047247;28;20456;-69
2021/11/22 06:53:00;;;;;;;26.25;2.90;;;18.10;99.90;;;;;;5049162;28;20033;-69
2021/11/22 06:55:28;;;;;;;17.95;2.20;;;18.20;99.90;;;;;;5036112;28;20490;-69
2021/11/22 06:57:56;;;;;;;15.27;3.58;;;18.20;99.90;;;;;;5052493;28;20030;-69
2021/11/22 07:00:24;;;;;;;16.25;2.10;;;18.30;99.90;;;;;;5037040;28;20029;-68
2021/11/22 07:02:52;;;;;;;21.25;3.05;;;18.20;99.90;;;;;;5030796;28;20032;-69
2021/11/22 07:05:23;;;;;;;19.63;2.58;;;18.30;99.90;;;;;;5040919;28;20079;-69
2021/11/22 07:07:52;;;;;;;10.48;2.30;;;18.30;99.90;;;;;;5039496;28;20393;-69
2021/11/22 07:10:23;;;;;;;17.60;2.67;;;18.30;99.90;;;;;;5040888;28;20030;-69
2021/11/22 07:12:52;;;;;;;15.35;3.08;;;18.30;99.90;;;;;;5047007;28;20696;-68
2021/11/22 07:15:21;;;;;;;18.00;3.15;;;18.30;99.90;;;;;;5057570;28;20025;-68
2021/11/22 07:17:50;;;;;;;19.27;3.47;;;18.30;99.90;;;;;;5047486;28;20092;-68
2021/11/22 07:20:19;;;;;;;14.88;2.38;;;18.30;99.90;;;;;;5059245;28;20013;-68
2021/11/22 07:22:47;;;;;;;14.73;2.20;;;18.30;99.90;;;;;;5053205;28;20107;-68
2021/11/22 07:25:14;;;;;;;26.73;3.85;;;18.30;99.90;;;;;;5042287;28;20492;-68
2021/11/22 07:27:41;;;;;;;14.98;2.85;;;18.30;99.90;;;;;;5037802;28;20036;-68
2021/11/22 07:30:09;;;;;;;18.50;3.30;;;18.40;99.90;;;;;;5040946;28;20025;-68
2021/11/22 07:32:37;;;;;;;18.83;2.53;;;18.40;99.90;;;;;;5047171;28;20155;-68
2021/11/22 07:35:04;;;;;;;17.10;2.80;;;18.40;99.90;;;;;;5054767;28;20032;-68
2021/11/22 07:37:32;;;;;;;18.20;2.50;;;18.40;99.90;;;;;;5041607;28;20028;-68
2021/11/22 07:40:00;;;;;;;20.65;2.50;;;18.40;99.90;;;;;;5068992;28;20025;-68
2021/11/22 07:42:29;;;;;;;15.82;2.42;;;18.40;99.90;;;;;;5053248;28;20032;-68
2021/11/22 07:44:56;;;;;;;19.08;2.50;;;18.40;99.90;;;;;;5049280;28;20088;-68
2021/11/22 07:47:24;;;;;;;17.30;2.58;;;18.50;99.90;;;;;;5047589;28;20070;-68
2021/11/22 07:49:51;;;;;;;15.27;2.25;;;18.50;99.90;;;;;;5046521;28;20033;-68
2021/11/22 07:52:19;;;;;;;17.90;2.45;;;18.50;99.90;;;;;;5043830;28;20032;-68
2021/11/22 07:54:46;;;;;;;17.48;2.38;;;18.40;99.90;;;;;;5046830;28;20049;-68
2021/11/22 07:57:13;;;;;;;16.48;2.33;;;18.40;99.90;;;;;;5038965;28;20435;-68
2021/11/22 07:59:41;;;;;;;19.17;3.10;;;18.30;99.90;;;;;;5043360;28;20036;-68
2021/11/22 08:02:09;;;;;;;21.05;3.17;;;18.30;99.90;;;;;;5043498;28;20087;-68
2021/11/22 08:04:36;;;;;;;23.85;3.83;;;18.20;99.90;;;;;;5035431;28;20037;-68
2021/11/22 08:07:11;;;;;;;16.58;2.78;;;18.20;99.90;;;;;;5050665;28;20025;-69
2021/11/22 08:09:44;;;;;;;18.48;2.95;;;18.20;99.90;;;;;;5053736;28;20037;-69
2021/11/22 08:12:26;;;;;;;13.82;2.75;;;18.10;99.90;;;;;;5035233;28;20030;-69
2021/11/22 08:14:59;;;;;;;18.40;2.50;;;18.10;99.90;;;;;;5028553;28;20386;-69
2021/11/22 08:17:28;;;;;;;13.02;1.92;;;18.10;99.90;;;;;;5050450;28;20021;-68
2021/11/22 08:19:57;;;;;;;20.40;2.95;;;18.10;99.90;;;;;;5035663;28;20022;-69
2021/11/22 08:22:25;;;;;;;20.75;4.13;;;18.10;99.90;;;;;;5050716;28;20067;-68
2021/11/22 08:24:54;;;;;;;16.17;2.60;;;18.10;99.90;;;;;;5048314;28;20377;-68
2021/11/22 08:27:23;;;;;;;9.70;2.00;;;18.00;99.90;;;;;;5029268;28;20051;-69
2021/11/22 08:29:51;;;;;;;26.20;3.05;;;18.00;99.90;;;;;;5041128;28;20606;-70
2021/11/22 08:32:20;;;;;;;23.70;2.95;;;18.00;99.90;;;;;;5032981;28;20108;-69
2021/11/22 08:34:47;;;;;;;19.75;3.88;;;17.90;99.90;;;;;;5034597;28;20087;-68
2021/11/22 08:37:16;;;;;;;18.85;3.22;;;17.90;99.90;;;;;;5044456;28;20021;-69
2021/11/22 08:39:43;;;;;;;17.98;2.33;;;17.90;99.90;;;;;;5033915;28;20505;-68
2021/11/22 08:42:11;;;;;;;18.17;2.53;;;17.90;99.90;;;;;;5038995;28;20063;-69
2021/11/22 08:44:39;;;;;;;28.23;2.47;;;17.90;99.90;;;;;;5042741;28;20040;-69
2021/11/22 08:47:06;;;;;;;17.88;3.53;;;17.80;99.90;;;;;;5037051;28;20033;-68
2021/11/22 08:49:34;;;;;;;14.32;3.58;;;17.80;99.90;;;;;;5031471;28;20466;-68
2021/11/22 08:52:02;;;;;;;29.10;4.70;;;17.80;99.90;;;;;;5025579;28;20037;-68
2021/11/22 08:54:30;;;;;;;27.15;4.60;;;17.80;99.90;;;;;;5042059;28;20029;-68
2021/11/22 08:56:57;;;;;;;21.83;3.10;;;17.70;99.90;;;;;;5060072;28;20171;-68
2021/11/22 08:59:24;;;;;;;24.30;3.17;;;17.70;99.90;;;;;;5032663;28;20059;-69
2021/11/22 09:01:52;;;;;;;22.23;2.95;;;17.70;99.90;;;;;;5043003;28;20029;-68
2021/11/22 09:04:19;;;;;;;25.83;3.33;;;17.70;99.90;;;;;;5042156;28;20030;-68
2021/11/22 09:06:46;;;;;;;20.80;3.17;;;17.70;99.90;;;;;;5035600;28;20030;-68
2021/11/22 09:09:15;;;;;;;25.35;3.58;;;17.70;99.90;;;;;;5046150;28;20032;-68
2021/11/22 09:11:43;;;;;;;28.95;3.58;;;17.70;99.90;;;;;;5047096;28;20069;-68
2021/11/22 09:14:10;;;;;;;18.02;3.10;;;17.70;99.90;;;;;;5040475;28;20041;-68
2021/11/22 09:16:37;;;;;;;22.52;3.13;;;17.70;99.90;;;;;;5036515;28;20026;-68
2021/11/22 09:19:05;;;;;;;22.25;3.97;;;17.70;99.90;;;;;;5027554;28;20439;-68
2021/11/22 09:21:34;;;;;;;18.88;2.55;;;17.70;99.90;;;;;;5034399;28;20026;-69
2021/11/22 09:24:03;;;;;;;20.83;3.03;;;17.80;99.90;;;;;;5032083;28;20025;-69
2021/11/22 09:26:30;;;;;;;19.60;3.97;;;17.80;99.90;;;;;;5055246;28;20730;-68
2021/11/22 09:28:59;;;;;;;27.55;2.42;;;17.80;99.90;;;;;;5024560;28;20109;-69
2021/11/22 09:31:26;;;;;;;23.63;3.47;;;17.80;99.90;;;;;;5033125;28;20033;-69
2021/11/22 09:33:54;;;;;;;22.35;2.60;;;17.70;99.90;;;;;;5036254;28;20074;-69
2021/11/22 09:36:22;;;;;;;21.10;2.65;;;17.80;99.90;;;;;;5045990;28;20029;-68
2021/11/22 09:38:50;;;;;;;17.85;2.28;;;17.80;99.90;;;;;;5036866;28;20033;-68
2021/11/22 09:41:18;;;;;;;26.50;3.90;;;17.70;99.90;;;;;;5043359;28;20060;-69
2021/11/22 09:43:48;;;;;;;23.20;3.05;;;17.80;99.90;;;;;;5033260;28;20485;-69
2021/11/22 09:46:15;;;;;;;12.02;2.45;;;17.70;99.90;;;;;;5038049;28;20049;-68
2021/11/22 09:48:43;;;;;;;22.00;2.92;;;17.80;99.90;;;;;;5047590;28;20439;-69
2021/11/22 09:51:11;;;;;;;17.23;2.58;;;17.80;99.90;;;;;;5057706;28;20041;-69
2021/11/22 09:53:41;;;;;;;19.42;3.55;;;17.80;99.90;;;;;;5042882;28;20055;-68
2021/11/22 09:56:10;;;;;;;18.30;3.88;;;17.80;99.90;;;;;;5051996;28;20078;-69
2021/11/22 09:58:38;;;;;;;21.65;2.78;;;17.80;99.90;;;;;;5033517;28;20091;-69
2021/11/22 10:01:12;;;;;;;22.90;2.65;;;17.80;99.90;;;;;;5027394;28;20029;-68
2021/11/22 10:03:40;;;;;;;27.55;4.40;;;17.80;99.90;;;;;;5031724;28;20358;-69
2021/11/22 10:06:07;;;;;;;16.63;3.47;;;17.80;99.90;;;;;;5025083;28;20547;-69
2021/11/22 10:08:42;;;;;;;25.52;3.38;;;17.80;99.90;;;;;;5047263;28;20489;-69
2021/11/22 10:11:16;;;;;;;32.22;4.43;;;17.80;99.90;;;;;;5031988;28;20040;-69
2021/11/22 10:13:46;;;;;;;22.38;3.35;;;17.80;99.90;;;;;;5044857;28;20029;-69
2021/11/22 10:16:16;;;;;;;22.25;3.22;;;17.80;99.90;;;;;;5056237;28;20058;-70
2021/11/22 10:18:47;;;;;;;19.27;3.92;;;17.80;99.90;;;;;;5033136;28;20363;-69
2021/11/22 10:21:18;;;;;;;25.08;3.50;;;17.80;99.90;;;;;;5043244;28;20020;-69
2021/11/22 10:23:47;;;;;;;29.48;4.32;;;17.80;99.90;;;;;;5047490;28;20025;-69
2021/11/22 10:26:16;;;;;;;25.40;3.70;;;17.80;99.90;;;;;;5047023;28;20024;-69
2021/11/22 10:28:49;;;;;;;21.73;3.35;;;17.80;99.90;;;;;;5048210;28;20018;-68
2021/11/22 10:31:23;;;;;;;26.60;4.10;;;17.80;99.90;;;;;;5040704;28;20025;-69
2021/11/22 10:33:52;;;;;;;20.90;2.53;;;17.80;99.90;;;;;;5033210;28;20771;-69
2021/11/22 10:36:23;;;;;;;19.80;2.90;;;17.80;99.90;;;;;;5032815;28;20021;-69
2021/11/22 10:39:00;;;;;;;20.50;3.40;;;17.80;99.90;;;;;;5040447;28;20075;-69
2021/11/22 10:41:30;;;;;;;22.67;2.63;;;17.80;99.90;;;;;;5036274;28;20037;-69
2021/11/22 10:44:11;;;;;;;30.25;3.80;;;17.80;99.90;;;;;;5036540;28;20101;-69
2021/11/22 10:46:45;;;;;;;22.35;2.90;;;17.80;99.90;;;;;;5038668;28;20706;-69
2021/11/22 10:49:14;;;;;;;;;;;17.80;99.90;;;;;;5049014;28;20052;-70
2021/11/22 10:51:47;;;;;;;18.98;2.42;;;17.80;99.90;;;;;;5032932;28;19917;-69
2021/11/22 10:54:17;;;;;;;30.02;3.78;;;17.80;99.90;;;;;;5038971;28;20055;-69
2021/11/22 10:56:49;;;;;;;24.48;3.20;;;17.70;99.90;;;;;;5030859;28;20033;-69
2021/11/22 10:59:22;;;;;;;26.40;3.00;;;17.70;99.90;;;;;;5030577;28;20026;-69
2021/11/22 11:01:54;;;;;;;17.08;2.65;;;17.80;99.90;;;;;;5030466;28;20440;-69
2021/11/22 11:04:24;;;;;;;14.05;2.40;;;17.80;99.90;;;;;;5031624;28;20076;-69
2021/11/22 11:07:05;;;;;;;25.52;2.88;;;17.70;99.90;;;;;;5032526;28;20029;-69
2021/11/22 11:09:38;;;;;;;20.95;3.05;;;17.70;99.90;;;;;;5028430;28;20029;-69
2021/11/22 11:12:18;;;;;;;29.15;3.83;;;17.70;99.90;;;;;;5022793;28;20063;-69
2021/11/22 11:14:48;;;;;;;20.40;2.85;;;17.70;99.90;;;;;;5027635;28;20129;-69
2021/11/22 11:17:22;;;;;;;30.48;4.28;;;17.70;99.90;;;;;;5025397;28;20053;-70
2021/11/22 11:19:55;;;;;;;19.75;3.13;;;17.70;99.90;;;;;;5027329;28;20492;-69
2021/11/22 11:22:26;;;;;;;20.80;3.58;;;17.70;99.90;;;;;;5034148;28;20493;-70
2021/11/22 11:24:56;;;;;;;17.77;3.42;;;17.70;99.90;;;;;;5038234;28;20061;-70
2021/11/22 11:27:24;;;;;;;21.30;3.35;;;17.70;99.90;;;;;;5039601;28;20104;-69
2021/11/22 11:29:52;;;;;;;18.95;2.53;;;17.70;99.90;;;;;;5049340;28;20025;-70
2021/11/22 11:32:20;;;;;;;19.20;3.22;;;17.70;99.90;;;;;;5039106;28;20047;-70
2021/11/22 11:34:54;;;;;;;15.48;2.97;;;17.70;99.90;;;;;;5048191;28;20036;-69
2021/11/22 11:37:39;;;;;;;20.23;2.50;;;17.70;99.90;;;;;;5033999;28;20029;-70
2021/11/22 11:40:27;;;;;;;16.85;2.90;;;17.70;99.90;;;;;;5045181;28;20108;-70
2021/11/22 11:43:08;;;;;;;22.52;3.33;;;17.70;99.90;;;;;;5045481;28;20021;-70
2021/11/22 11:46:10;;;;;;;18.48;2.60;;;17.70;99.90;;;;;;5042698;28;20094;-70
2021/11/22 11:48:58;;;;;;;19.38;2.60;;;17.70;99.90;;;;;;5036319;28;20064;-70
2021/11/22 11:51:38;;;;;;;20.08;2.95;;;17.70;99.90;;;;;;5043932;28;20048;-70
2021/11/22 11:54:29;;;;;;;17.83;2.50;;;17.70;99.90;;;;;;5041707;28;20024;-70
2021/11/22 11:57:21;;;;;;;23.92;3.67;;;17.70;99.90;;;;;;5032441;28;20137;-70
2021/11/22 11:59:49;;;;;;;23.27;2.72;;;17.70;99.90;;;;;;5045696;28;20374;-70
2021/11/22 12:02:30;;;;;;;21.88;2.55;;;17.70;99.90;;;;;;5053792;28;20108;-70
2021/11/22 12:05:04;;;;;;;21.25;2.05;;;17.70;99.90;;;;;;5036467;28;20033;-70
2021/11/22 12:07:39;;;;;;;20.05;2.60;;;17.70;99.90;;;;;;5037716;28;20021;-70
2021/11/22 12:10:11;;;;;;;23.15;2.97;;;17.70;99.90;;;;;;5048653;28;20481;-70
2021/11/22 12:12:58;;;;;;;19.38;2.95;;;17.70;99.90;;;;;;5045234;28;20079;-70
2021/11/22 12:15:41;;;;;;;19.52;2.33;;;17.70;99.90;;;;;;5037358;28;20014;-70
2021/11/22 12:18:28;;;;;;;19.30;2.45;;;17.70;99.90;;;;;;5041024;28;20028;-70
2021/11/22 12:21:22;;;;;;;20.00;2.10;;;17.70;99.90;;;;;;5042733;28;20021;-70
2021/11/22 12:23:52;;;;;;;19.17;2.53;;;17.70;99.90;;;;;;5040189;28;20053;-70
2021/11/22 12:26:36;;;;;;;26.17;3.72;;;17.70;99.90;;;;;;5039482;28;20035;-70
2021/11/22 12:29:05;;;;;;;15.85;2.75;;;17.70;99.90;;;;;;5049415;28;20032;-70
2021/11/22 12:31:39;;;;;;;20.27;2.40;;;17.80;99.90;;;;;;5039297;28;20457;-70
2021/11/22 12:34:10;;;;;;;;;;;17.80;99.90;;;;;;5035206;28;20033;-70
2021/11/22 12:36:40;;;;;;;15.40;2.25;;;17.80;99.90;;;;;;5036966;28;19916;-70
2021/11/22 12:39:15;;;;;;;20.17;2.22;;;17.70;99.90;;;;;;5041002;28;20477;-70
2021/11/22 12:41:43;;;;;;;14.68;2.75;;;17.70;99.90;;;;;;5040030;28;20112;-70
2021/11/22 12:44:14;;;;;;;26.60;3.05;;;17.80;99.90;;;;;;5035043;28;20543;-70
2021/11/22 12:46:45;;;;;;;25.65;3.30;;;17.80;99.90;;;;;;5034062;28;20045;-70
2021/11/22 12:49:30;;;;;;;27.45;3.70;;;17.80;99.90;;;;;;5061967;28;20025;-70
2021/11/22 12:52:21;;;;;;;26.83;3.47;;;17.70;99.90;;;;;;5031549;28;20086;-70